sensor_id;sensor_type;location;lat;lon;timestamp;P1;P2;P0
14880;PMS7003;7533;51.278;12.588;2023-02-02T00:04:14;0.00;0.00;0.00
14880;PMS7003;7533;51.278;12.588;2023-02-02T00:09:19;0.50;0.00;0.00
14880;PMS7003;7533;51.278;12.588;2023-02-02T00:14:24;0.00;0.00;0.00
14880;PMS7003;7533;51.278;12.588;2023-02-02T00:19:28;0.00;0.00;0.00
14880;PMS7003;7533;51.278;12.588;2023-02-02T00:24:31;1.75;0.50;0.00
14880;PMS7003;7533;51.278;12.588;2023-02-02T00:29:35;0.25;0.25;0.00
14880;PMS7003;7533;51.278;12.588;2023-02-02T00:34:40;0.00;0.00;0.00
14880;PMS7003;7533;51.278;12.588;2023-02-02T00:39:43;0.00;0.00;0.00
14880;PMS7003;7533;51.278;12.588;2023-02-02T00:44:47;1.00;1.00;0.00
14880;PMS7003;7533;51.278;12.588;2023-02-02T00:50:09;1.00;0.00;0.00
14880;PMS7003;7533;51.278;12.588;2023-02-02T00:55:13;0.00;0.00;0.00
14880;PMS7003;7533;51.278;12.588;2023-02-02T01:00:20;0.75;0.00;0.00
14880;PMS7003;7533;51.278;12.588;2023-02-02T01:05:24;1.00;1.00;0.00
14880;PMS7003;7533;51.278;12.588;2023-02-02T01:10:27;0.00;0.00;0.00
14880;PMS7003;7533;51.278;12.588;2023-02-02T01:15:31;0.25;0.25;0.00
14880;PMS7003;7533;51.278;12.588;2023-02-02T01:20:34;0.75;0.75;0.00
14880;PMS7003;7533;51.278;12.588;2023-02-02T01:25:37;0.00;0.00;0.00
14880;PMS7003;7533;51.278;12.588;2023-02-02T01:30:41;0.00;0.00;0.00
14880;PMS7003;7533;51.278;12.588;2023-02-02T01:35:44;2.50;0.75;0.00
14880;PMS7003;7533;51.278;12.588;2023-02-02T01:40:50;0.00;0.00;0.00
14880;PMS7003;7533;51.278;12.588;2023-02-02T01:45:56;0.00;0.00;0.00
14880;PMS7003;7533;51.278;12.588;2023-02-02T01:51:00;0.25;0.25;0.00
14880;PMS7003;7533;51.278;12.588;2023-02-02T01:56:05;0.50;0.00;0.00
14880;PMS7003;7533;51.278;12.588;2023-02-02T02:01:13;0.00;0.00;0.00
14880;PMS7003;7533;51.278;12.588;2023-02-02T02:06:16;0.25;0.25;0.00
14880;PMS7003;7533;51.278;12.588;2023-02-02T02:11:21;1.50;0.50;0.00
14880;PMS7003;7533;51.278;12.588;2023-02-02T02:16:28;0.25;0.00;0.00
14880;PMS7003;7533;51.278;12.588;2023-02-02T02:21:45;0.25;0.00;0.00
14880;PMS7003;7533;51.278;12.588;2023-02-02T02:27:27;0.25;0.25;0.00
14880;PMS7003;7533;51.278;12.588;2023-02-02T02:32:45;0.50;0.00;0.00
14880;PMS7003;7533;51.278;12.588;2023-02-02T02:37:52;2.25;0.50;0.00
14880;PMS7003;7533;51.278;12.588;2023-02-02T02:43:02;0.00;0.00;0.00
14880;PMS7003;7533;51.278;12.588;2023-02-02T02:48:11;0.00;0.00;0.00
14880;PMS7003;7533;51.278;12.588;2023-02-02T02:53:15;0.00;0.00;0.00
14880;PMS7003;7533;51.278;12.588;2023-02-02T02:58:23;0.00;0.00;0.00
14880;PMS7003;7533;51.278;12.588;2023-02-02T03:03:41;0.50;0.00;0.00
14880;PMS7003;7533;51.278;12.588;2023-02-02T03:08:54;0.50;0.50;0.00
14880;PMS7003;7533;51.278;12.588;2023-02-02T03:14:02;1.00;0.00;0.00
14880;PMS7003;7533;51.278;12.588;2023-02-02T03:19:11;0.00;0.00;0.00
14880;PMS7003;7533;51.278;12.588;2023-02-02T03:24:14;0.50;0.00;0.00
14880;PMS7003;7533;51.278;12.588;2023-02-02T03:29:17;0.00;0.00;0.00
14880;PMS7003;7533;51.278;12.588;2023-02-02T03:34:21;1.00;1.00;1.00
14880;PMS7003;7533;51.278;12.588;2023-02-02T03:39:24;0.00;0.00;0.00
14880;PMS7003;7533;51.278;12.588;2023-02-02T03:44:27;0.00;0.00;0.00
14880;PMS7003;7533;51.278;12.588;2023-02-02T03:49:31;0.00;0.00;0.00
14880;PMS7003;7533;51.278;12.588;2023-02-02T03:54:34;0.00;0.00;0.00
14880;PMS7003;7533;51.278;12.588;2023-02-02T03:59:36;0.75;0.75;0.00
14880;PMS7003;7533;51.278;12.588;2023-02-02T04:04:41;0.00;0.00;0.00
14880;PMS7003;7533;51.278;12.588;2023-02-02T04:09:43;0.00;0.00;0.00
14880;PMS7003;7533;51.278;12.588;2023-02-02T04:14:46;0.25;0.00;0.00
14880;PMS7003;7533;51.278;12.588;2023-02-02T04:19:50;0.00;0.00;0.00
14880;PMS7003;7533;51.278;12.588;2023-02-02T04:24:58;0.00;0.00;0.00
14880;PMS7003;7533;51.278;12.588;2023-02-02T04:30:01;0.00;0.00;0.00
14880;PMS7003;7533;51.278;12.588;2023-02-02T04:35:05;1.00;1.00;0.00
14880;PMS7003;7533;51.278;12.588;2023-02-02T04:40:09;0.00;0.00;0.00
14880;PMS7003;7533;51.278;12.588;2023-02-02T04:45:14;0.00;0.00;0.00
14880;PMS7003;7533;51.278;12.588;2023-02-02T04:50:18;0.00;0.00;0.00
14880;PMS7003;7533;51.278;12.588;2023-02-02T04:55:22;0.00;0.00;0.00
14880;PMS7003;7533;51.278;12.588;2023-02-02T05:00:25;0.00;0.00;0.00
14880;PMS7003;7533;51.278;12.588;2023-02-02T05:05:29;1.75;0.75;0.00
14880;PMS7003;7533;51.278;12.588;2023-02-02T05:10:32;0.00;0.00;0.00
14880;PMS7003;7533;51.278;12.588;2023-02-02T05:15:35;0.00;0.00;0.00
14880;PMS7003;7533;51.278;12.588;2023-02-02T05:20:39;0.00;0.00;0.00
14880;PMS7003;7533;51.278;12.588;2023-02-02T05:25:42;0.00;0.00;0.00
14880;PMS7003;7533;51.278;12.588;2023-02-02T05:30:45;0.00;0.00;0.00
14880;PMS7003;7533;51.278;12.588;2023-02-02T05:35:49;0.00;0.00;0.00
14880;PMS7003;7533;51.278;12.588;2023-02-02T05:40:52;0.00;0.00;0.00
14880;PMS7003;7533;51.278;12.588;2023-02-02T05:45:55;0.00;0.00;0.00
14880;PMS7003;7533;51.278;12.588;2023-02-02T05:51:00;1.00;0.00;0.00
14880;PMS7003;7533;51.278;12.588;2023-02-02T05:56:07;0.00;0.00;0.00
14880;PMS7003;7533;51.278;12.588;2023-02-02T06:01:10;0.75;0.00;0.00
14880;PMS7003;7533;51.278;12.588;2023-02-02T06:06:14;0.00;0.00;0.00
14880;PMS7003;7533;51.278;12.588;2023-02-02T06:11:17;0.00;0.00;0.00
14880;PMS7003;7533;51.278;12.588;2023-02-02T06:16:20;1.50;0.00;0.00
14880;PMS7003;7533;51.278;12.588;2023-02-02T06:21:24;0.00;0.00;0.00
14880;PMS7003;7533;51.278;12.588;2023-02-02T06:26:27;0.00;0.00;0.00
14880;PMS7003;7533;51.278;12.588;2023-02-02T06:31:30;0.00;0.00;0.00
14880;PMS7003;7533;51.278;12.588;2023-02-02T06:36:35;0.00;0.00;0.00
14880;PMS7003;7533;51.278;12.588;2023-02-02T06:41:38;0.75;0.00;0.00
14880;PMS7003;7533;51.278;12.588;2023-02-02T06:46:41;0.00;0.00;0.00
14880;PMS7003;7533;51.278;12.588;2023-02-02T06:51:46;1.00;0.00;0.00
14880;PMS7003;7533;51.278;12.588;2023-02-02T06:56:49;1.00;0.00;0.00
14880;PMS7003;7533;51.278;12.588;2023-02-02T07:01:52;0.00;0.00;0.00
14880;PMS7003;7533;51.278;12.588;2023-02-02T07:06:56;1.00;0.00;0.00
14880;PMS7003;7533;51.278;12.588;2023-02-02T07:11:59;0.00;0.00;0.00
14880;PMS7003;7533;51.278;12.588;2023-02-02T07:17:02;0.25;0.25;0.00
14880;PMS7003;7533;51.278;12.588;2023-02-02T07:22:06;0.00;0.00;0.00
14880;PMS7003;7533;51.278;12.588;2023-02-02T07:27:09;0.00;0.00;0.00
14880;PMS7003;7533;51.278;12.588;2023-02-02T07:32:12;0.00;0.00;0.00
14880;PMS7003;7533;51.278;12.588;2023-02-02T07:37:17;0.00;0.00;0.00
14880;PMS7003;7533;51.278;12.588;2023-02-02T07:42:20;0.00;0.00;0.00
14880;PMS7003;7533;51.278;12.588;2023-02-02T07:47:23;0.00;0.00;0.00
14880;PMS7003;7533;51.278;12.588;2023-02-02T07:52:29;0.00;0.00;0.00
14880;PMS7003;7533;51.278;12.588;2023-02-02T07:57:31;0.25;0.00;0.00
14880;PMS7003;7533;51.278;12.588;2023-02-02T08:02:34;0.00;0.00;0.00
14880;PMS7003;7533;51.278;12.588;2023-02-02T08:07:38;0.00;0.00;0.00
14880;PMS7003;7533;51.278;12.588;2023-02-02T08:12:41;1.00;0.00;0.00
14880;PMS7003;7533;51.278;12.588;2023-02-02T08:17:44;1.25;1.00;0.00
14880;PMS7003;7533;51.278;12.588;2023-02-02T08:22:51;0.75;0.75;0.00
14880;PMS7003;7533;51.278;12.588;2023-02-02T08:27:54;0.75;0.75;0.00
14880;PMS7003;7533;51.278;12.588;2023-02-02T08:32:58;6.50;2.75;1.00
14880;PMS7003;7533;51.278;12.588;2023-02-02T08:38:03;2.00;2.00;1.00
14880;PMS7003;7533;51.278;12.588;2023-02-02T08:43:07;1.75;1.00;0.25
14880;PMS7003;7533;51.278;12.588;2023-02-02T08:48:11;0.00;0.00;0.00
14880;PMS7003;7533;51.278;12.588;2023-02-02T08:53:16;0.50;0.25;0.00
14880;PMS7003;7533;51.278;12.588;2023-02-02T08:58:18;0.25;0.25;0.00
14880;PMS7003;7533;51.278;12.588;2023-02-02T09:03:21;0.75;0.75;0.00
14880;PMS7003;7533;51.278;12.588;2023-02-02T09:08:25;2.00;2.00;0.50
14880;PMS7003;7533;51.278;12.588;2023-02-02T09:13:28;0.00;0.00;0.00
14880;PMS7003;7533;51.278;12.588;2023-02-02T09:18:31;1.00;1.00;0.00
14880;PMS7003;7533;51.278;12.588;2023-02-02T09:23:36;1.75;1.00;0.00
14880;PMS7003;7533;51.278;12.588;2023-02-02T09:28:41;0.00;0.00;0.00
14880;PMS7003;7533;51.278;12.588;2023-02-02T09:33:46;1.00;1.00;0.00
14880;PMS7003;7533;51.278;12.588;2023-02-02T09:38:50;0.00;0.00;0.00
14880;PMS7003;7533;51.278;12.588;2023-02-02T09:43:55;0.50;0.00;0.00
14880;PMS7003;7533;51.278;12.588;2023-02-02T09:49:08;0.00;0.00;0.00
14880;PMS7003;7533;51.278;12.588;2023-02-02T09:54:18;2.25;2.00;0.00
14880;PMS7003;7533;51.278;12.588;2023-02-02T09:59:25;0.00;0.00;0.00
14880;PMS7003;7533;51.278;12.588;2023-02-02T10:04:33;1.00;0.00;0.00
14880;PMS7003;7533;51.278;12.588;2023-02-02T10:09:41;1.00;1.00;0.00
14880;PMS7003;7533;51.278;12.588;2023-02-02T10:14:49;1.00;0.00;0.00
14880;PMS7003;7533;51.278;12.588;2023-02-02T10:20:00;1.00;1.00;0.00
14880;PMS7003;7533;51.278;12.588;2023-02-02T10:25:12;0.00;0.00;0.00
14880;PMS7003;7533;51.278;12.588;2023-02-02T10:30:17;0.25;0.25;0.00
14880;PMS7003;7533;51.278;12.588;2023-02-02T10:35:28;0.50;0.00;0.00
14880;PMS7003;7533;51.278;12.588;2023-02-02T10:40:43;0.00;0.00;0.00
14880;PMS7003;7533;51.278;12.588;2023-02-02T10:45:56;1.75;0.00;0.00
14880;PMS7003;7533;51.278;12.588;2023-02-02T10:51:01;1.00;1.00;0.00
14880;PMS7003;7533;51.278;12.588;2023-02-02T10:56:13;0.00;0.00;0.00
14880;PMS7003;7533;51.278;12.588;2023-02-02T11:01:22;1.00;0.50;0.00
14880;PMS7003;7533;51.278;12.588;2023-02-02T11:06:25;0.50;0.50;0.00
14880;PMS7003;7533;51.278;12.588;2023-02-02T11:11:47;1.00;1.00;0.00
14880;PMS7003;7533;51.278;12.588;2023-02-02T11:16:59;1.75;1.00;0.00
14880;PMS7003;7533;51.278;12.588;2023-02-02T11:22:03;1.00;1.00;0.00
14880;PMS7003;7533;51.278;12.588;2023-02-02T11:27:11;1.00;1.00;0.00
14880;PMS7003;7533;51.278;12.588;2023-02-02T11:32:22;2.00;1.00;0.00
14880;PMS7003;7533;51.278;12.588;2023-02-02T11:37:29;1.25;0.00;0.00
14880;PMS7003;7533;51.278;12.588;2023-02-02T11:42:35;1.00;0.75;0.00
14880;PMS7003;7533;51.278;12.588;2023-02-02T11:47:38;0.00;0.00;0.00
14880;PMS7003;7533;51.278;12.588;2023-02-02T11:52:43;0.50;0.50;0.00
14880;PMS7003;7533;51.278;12.588;2023-02-02T12:03:32;0.00;0.00;0.00
14880;PMS7003;7533;51.278;12.588;2023-02-02T12:08:37;1.00;1.00;0.00
14880;PMS7003;7533;51.278;12.588;2023-02-02T12:13:45;2.25;2.25;1.00
14880;PMS7003;7533;51.278;12.588;2023-02-02T12:19:02;6.00;4.25;1.25
14880;PMS7003;7533;51.278;12.588;2023-02-02T12:24:26;10.50;8.00;3.75
14880;PMS7003;7533;51.278;12.588;2023-02-02T12:29:53;6.00;4.00;2.00
14880;PMS7003;7533;51.278;12.588;2023-02-02T12:40:39;5.00;4.50;1.00
14880;PMS7003;7533;51.278;12.588;2023-02-02T12:46:11;5.75;5.00;1.75
14880;PMS7003;7533;51.278;12.588;2023-02-02T12:51:40;6.25;6.25;2.75
14880;PMS7003;7533;51.278;12.588;2023-02-02T12:56:56;6.25;2.50;1.00
14880;PMS7003;7533;51.278;12.588;2023-02-02T13:02:10;5.00;2.75;1.00
14880;PMS7003;7533;51.278;12.588;2023-02-02T13:07:35;3.00;3.00;1.00
14880;PMS7003;7533;51.278;12.588;2023-02-02T13:12:42;3.50;3.50;1.50
14880;PMS7003;7533;51.278;12.588;2023-02-02T13:17:52;3.25;2.75;0.75
14880;PMS7003;7533;51.278;12.588;2023-02-02T13:22:58;3.00;3.00;0.25
14880;PMS7003;7533;51.278;12.588;2023-02-02T13:28:04;3.00;3.00;1.00
14880;PMS7003;7533;51.278;12.588;2023-02-02T13:33:16;2.00;2.00;1.00
14880;PMS7003;7533;51.278;12.588;2023-02-02T13:38:25;2.50;2.00;0.75
14880;PMS7003;7533;51.278;12.588;2023-02-02T13:43:33;1.75;1.75;0.50
14880;PMS7003;7533;51.278;12.588;2023-02-02T13:48:50;3.00;3.00;1.00
14880;PMS7003;7533;51.278;12.588;2023-02-02T13:54:11;2.25;2.25;1.00
14880;PMS7003;7533;51.278;12.588;2023-02-02T13:59:32;2.00;2.00;0.25
14880;PMS7003;7533;51.278;12.588;2023-02-02T14:04:55;2.00;2.00;0.25
14880;PMS7003;7533;51.278;12.588;2023-02-02T14:10:01;2.25;1.00;0.00
14880;PMS7003;7533;51.278;12.588;2023-02-02T14:15:06;6.25;1.50;0.00
14880;PMS7003;7533;51.278;12.588;2023-02-02T14:25:59;2.50;2.00;0.00
14880;PMS7003;7533;51.278;12.588;2023-02-02T14:31:16;4.00;3.00;0.50
14880;PMS7003;7533;51.278;12.588;2023-02-02T14:36:33;2.00;1.00;0.00
14880;PMS7003;7533;51.278;12.588;2023-02-02T14:41:49;1.50;1.50;0.00
14880;PMS7003;7533;51.278;12.588;2023-02-02T14:52:56;1.50;1.50;0.50
14880;PMS7003;7533;51.278;12.588;2023-02-02T14:58:03;2.75;2.00;0.00
14880;PMS7003;7533;51.278;12.588;2023-02-02T15:08:36;1.25;1.00;0.00
14880;PMS7003;7533;51.278;12.588;2023-02-02T15:13:39;0.25;0.25;0.00
14880;PMS7003;7533;51.278;12.588;2023-02-02T15:18:46;3.00;2.00;0.00
14880;PMS7003;7533;51.278;12.588;2023-02-02T15:24:02;2.00;2.00;0.00
14880;PMS7003;7533;51.278;12.588;2023-02-02T15:29:12;0.50;0.00;0.00
14880;PMS7003;7533;51.278;12.588;2023-02-02T15:34:22;4.25;2.50;0.25
14880;PMS7003;7533;51.278;12.588;2023-02-02T15:39:30;4.25;3.25;1.00
14880;PMS7003;7533;51.278;12.588;2023-02-02T15:44:38;2.00;2.00;0.00
14880;PMS7003;7533;51.278;12.588;2023-02-02T15:49:41;1.00;1.00;0.00
14880;PMS7003;7533;51.278;12.588;2023-02-02T15:54:51;1.00;1.00;0.00
14880;PMS7003;7533;51.278;12.588;2023-02-02T15:59:55;1.50;0.75;0.00
14880;PMS7003;7533;51.278;12.588;2023-02-02T16:04:59;1.50;0.00;0.00
14880;PMS7003;7533;51.278;12.588;2023-02-02T16:10:04;1.50;1.50;0.00
14880;PMS7003;7533;51.278;12.588;2023-02-02T16:15:10;0.00;0.00;0.00
14880;PMS7003;7533;51.278;12.588;2023-02-02T16:20:20;1.00;0.50;0.00
14880;PMS7003;7533;51.278;12.588;2023-02-02T16:25:25;1.75;1.75;0.00
14880;PMS7003;7533;51.278;12.588;2023-02-02T16:30:29;1.00;1.00;0.00
14880;PMS7003;7533;51.278;12.588;2023-02-02T16:35:36;0.75;0.75;0.00
14880;PMS7003;7533;51.278;12.588;2023-02-02T16:40:42;1.75;1.00;0.00
14880;PMS7003;7533;51.278;12.588;2023-02-02T16:45:46;1.25;0.25;0.00
14880;PMS7003;7533;51.278;12.588;2023-02-02T16:51:01;0.00;0.00;0.00
14880;PMS7003;7533;51.278;12.588;2023-02-02T16:56:10;2.25;2.00;0.00
14880;PMS7003;7533;51.278;12.588;2023-02-02T17:01:32;1.00;1.00;0.00
14880;PMS7003;7533;51.278;12.588;2023-02-02T17:06:38;2.50;2.50;0.25
14880;PMS7003;7533;51.278;12.588;2023-02-02T17:11:58;1.75;1.75;1.00
14880;PMS7003;7533;51.278;12.588;2023-02-02T17:17:04;2.25;1.00;0.00
14880;PMS7003;7533;51.278;12.588;2023-02-02T17:22:07;2.33;1.00;0.00
14880;PMS7003;7533;51.278;12.588;2023-02-02T17:27:14;2.00;1.25;0.00
14880;PMS7003;7533;51.278;12.588;2023-02-02T17:32:19;1.50;1.25;0.00
14880;PMS7003;7533;51.278;12.588;2023-02-02T17:37:24;1.00;1.00;0.00
14880;PMS7003;7533;51.278;12.588;2023-02-02T17:42:28;1.00;1.00;0.75
14880;PMS7003;7533;51.278;12.588;2023-02-02T17:47:31;1.00;1.00;0.00
14880;PMS7003;7533;51.278;12.588;2023-02-02T17:52:37;1.00;1.00;0.00
14880;PMS7003;7533;51.278;12.588;2023-02-02T17:57:41;2.50;1.00;0.00
14880;PMS7003;7533;51.278;12.588;2023-02-02T18:02:47;2.25;2.25;0.00
14880;PMS7003;7533;51.278;12.588;2023-02-02T18:07:56;4.25;3.00;0.00
14880;PMS7003;7533;51.278;12.588;2023-02-02T18:13:00;1.25;1.25;0.00
14880;PMS7003;7533;51.278;12.588;2023-02-02T18:18:03;1.50;1.50;0.00
14880;PMS7003;7533;51.278;12.588;2023-02-02T18:23:06;3.00;2.75;0.00
14880;PMS7003;7533;51.278;12.588;2023-02-02T18:28:10;1.25;0.75;0.00
14880;PMS7003;7533;51.278;12.588;2023-02-02T18:33:17;1.25;1.25;0.00
14880;PMS7003;7533;51.278;12.588;2023-02-02T18:38:20;1.50;1.50;0.75
14880;PMS7003;7533;51.278;12.588;2023-02-02T18:43:24;3.00;1.00;0.00
14880;PMS7003;7533;51.278;12.588;2023-02-02T18:48:27;0.00;0.00;0.00
14880;PMS7003;7533;51.278;12.588;2023-02-02T18:53:30;3.00;1.00;0.00
14880;PMS7003;7533;51.278;12.588;2023-02-02T18:58:35;1.00;1.00;0.00
14880;PMS7003;7533;51.278;12.588;2023-02-02T19:03:38;1.00;1.00;0.00
14880;PMS7003;7533;51.278;12.588;2023-02-02T19:08:41;1.75;1.00;0.00
14880;PMS7003;7533;51.278;12.588;2023-02-02T19:13:45;0.00;0.00;0.00
14880;PMS7003;7533;51.278;12.588;2023-02-02T19:18:48;2.50;1.00;0.00
14880;PMS7003;7533;51.278;12.588;2023-02-02T19:23:51;0.00;0.00;0.00
14880;PMS7003;7533;51.278;12.588;2023-02-02T19:28:57;1.00;1.00;0.00
14880;PMS7003;7533;51.278;12.588;2023-02-02T19:34:04;1.00;1.00;0.00
14880;PMS7003;7533;51.278;12.588;2023-02-02T19:39:14;1.25;0.50;0.00
14880;PMS7003;7533;51.278;12.588;2023-02-02T19:44:20;2.00;2.00;0.00
14880;PMS7003;7533;51.278;12.588;2023-02-02T19:49:26;1.25;0.25;0.00
14880;PMS7003;7533;51.278;12.588;2023-02-02T19:54:33;1.00;1.00;0.00
14880;PMS7003;7533;51.278;12.588;2023-02-02T19:59:39;1.50;0.25;0.00
14880;PMS7003;7533;51.278;12.588;2023-02-02T20:04:43;0.25;0.25;0.00
14880;PMS7003;7533;51.278;12.588;2023-02-02T20:09:46;0.75;0.25;0.00
14880;PMS7003;7533;51.278;12.588;2023-02-02T20:14:51;1.25;1.25;0.00
14880;PMS7003;7533;51.278;12.588;2023-02-02T20:19:54;1.00;0.00;0.00
14880;PMS7003;7533;51.278;12.588;2023-02-02T20:24:59;3.75;1.00;0.00
14880;PMS7003;7533;51.278;12.588;2023-02-02T20:30:16;1.00;1.00;0.00
14880;PMS7003;7533;51.278;12.588;2023-02-02T20:35:23;0.75;0.50;0.00
14880;PMS7003;7533;51.278;12.588;2023-02-02T20:40:34;0.00;0.00;0.00
14880;PMS7003;7533;51.278;12.588;2023-02-02T20:45:38;0.00;0.00;0.00
14880;PMS7003;7533;51.278;12.588;2023-02-02T20:50:41;1.00;1.00;0.00
14880;PMS7003;7533;51.278;12.588;2023-02-02T20:55:46;1.75;0.00;0.00
14880;PMS7003;7533;51.278;12.588;2023-02-02T21:00:51;1.00;1.00;0.00
14880;PMS7003;7533;51.278;12.588;2023-02-02T21:05:55;0.00;0.00;0.00
14880;PMS7003;7533;51.278;12.588;2023-02-02T21:10:58;1.50;0.75;0.25
14880;PMS7003;7533;51.278;12.588;2023-02-02T21:16:02;1.75;1.75;0.00
14880;PMS7003;7533;51.278;12.588;2023-02-02T21:21:05;2.00;1.00;0.00
14880;PMS7003;7533;51.278;12.588;2023-02-02T21:26:08;1.25;1.25;0.00
14880;PMS7003;7533;51.278;12.588;2023-02-02T21:31:13;2.75;1.50;0.00
14880;PMS7003;7533;51.278;12.588;2023-02-02T21:36:22;1.00;1.00;0.00
14880;PMS7003;7533;51.278;12.588;2023-02-02T21:41:30;1.00;1.00;0.00
14880;PMS7003;7533;51.278;12.588;2023-02-02T21:46:36;2.00;2.00;0.00
14880;PMS7003;7533;51.278;12.588;2023-02-02T21:51:40;1.50;1.25;0.00
14880;PMS7003;7533;51.278;12.588;2023-02-02T21:56:44;0.25;0.25;0.00
14880;PMS7003;7533;51.278;12.588;2023-02-02T22:01:48;1.00;0.00;0.00
14880;PMS7003;7533;51.278;12.588;2023-02-02T22:06:53;1.00;1.00;0.00
14880;PMS7003;7533;51.278;12.588;2023-02-02T22:12:00;0.00;0.00;0.00
14880;PMS7003;7533;51.278;12.588;2023-02-02T22:17:17;0.00;0.00;0.00
14880;PMS7003;7533;51.278;12.588;2023-02-02T22:22:24;2.00;0.00;0.00
14880;PMS7003;7533;51.278;12.588;2023-02-02T22:27:39;0.25;0.25;0.00
14880;PMS7003;7533;51.278;12.588;2023-02-02T22:32:46;0.50;0.50;0.00
14880;PMS7003;7533;51.278;12.588;2023-02-02T22:37:48;0.50;0.50;0.00
14880;PMS7003;7533;51.278;12.588;2023-02-02T22:42:52;1.00;1.00;0.00
14880;PMS7003;7533;51.278;12.588;2023-02-02T22:47:58;0.25;0.25;0.00
14880;PMS7003;7533;51.278;12.588;2023-02-02T22:53:01;0.25;0.00;0.00
14880;PMS7003;7533;51.278;12.588;2023-02-02T22:58:05;0.00;0.00;0.00
14880;PMS7003;7533;51.278;12.588;2023-02-02T23:03:09;1.00;0.75;0.00
14880;PMS7003;7533;51.278;12.588;2023-02-02T23:08:12;0.75;0.75;0.00
14880;PMS7003;7533;51.278;12.588;2023-02-02T23:13:15;1.75;0.75;0.00
14880;PMS7003;7533;51.278;12.588;2023-02-02T23:18:19;0.00;0.00;0.00
14880;PMS7003;7533;51.278;12.588;2023-02-02T23:23:22;0.00;0.00;0.00
14880;PMS7003;7533;51.278;12.588;2023-02-02T23:28:25;0.00;0.00;0.00
14880;PMS7003;7533;51.278;12.588;2023-02-02T23:33:29;0.00;0.00;0.00
14880;PMS7003;7533;51.278;12.588;2023-02-02T23:38:32;0.00;0.00;0.00
14880;PMS7003;7533;51.278;12.588;2023-02-02T23:43:35;2.25;1.50;0.75
14880;PMS7003;7533;51.278;12.588;2023-02-02T23:48:39;0.00;0.00;0.00
14880;PMS7003;7533;51.278;12.588;2023-02-02T23:53:42;0.00;0.00;0.00
14880;PMS7003;7533;51.278;12.588;2023-02-02T23:58:45;0.25;0.25;0.00
